sensor_id;sensor_type;location;lat;lon;timestamp;pressure;altitude;pressure_sealevel;temperature;humidity
12349;BME280;5974;42.710;27.258;2023-11-19T00:00:15;99109.69;;;2.61;100.00
12349;BME280;5974;42.710;27.258;2023-11-19T00:02:42;99112.38;;;2.55;100.00
12349;BME280;5974;42.710;27.258;2023-11-19T00:05:09;99131.69;;;2.74;100.00
12349;BME280;5974;42.710;27.258;2023-11-19T00:07:36;99134.28;;;2.74;100.00
12349;BME280;5974;42.710;27.258;2023-11-19T00:10:07;99127.38;;;2.75;100.00
12349;BME280;5974;42.710;27.258;2023-11-19T00:12:35;99147.22;;;2.73;100.00
12349;BME280;5974;42.710;27.258;2023-11-19T00:15:04;99153.38;;;2.67;100.00
12349;BME280;5974;42.710;27.258;2023-11-19T00:17:31;99164.59;;;2.66;100.00
12349;BME280;5974;42.710;27.258;2023-11-19T00:19:58;99161.28;;;2.61;100.00
12349;BME280;5974;42.710;27.258;2023-11-19T00:22:25;99156.19;;;2.58;100.00
12349;BME280;5974;42.710;27.258;2023-11-19T00:24:53;99188.03;;;2.57;100.00
12349;BME280;5974;42.710;27.258;2023-11-19T00:27:20;99173.31;;;2.61;100.00
12349;BME280;5974;42.710;27.258;2023-11-19T00:29:47;99189.84;;;2.52;100.00
12349;BME280;5974;42.710;27.258;2023-11-19T00:32:15;99206.25;;;2.50;100.00
12349;BME280;5974;42.710;27.258;2023-11-19T00:34:44;99208.88;;;2.48;100.00
12349;BME280;5974;42.710;27.258;2023-11-19T00:37:12;99219.13;;;2.51;100.00
12349;BME280;5974;42.710;27.258;2023-11-19T00:39:39;99233.69;;;2.52;100.00
12349;BME280;5974;42.710;27.258;2023-11-19T00:42:06;99195.56;;;2.28;100.00
12349;BME280;5974;42.710;27.258;2023-11-19T00:44:32;99235.44;;;2.52;100.00
12349;BME280;5974;42.710;27.258;2023-11-19T00:47:00;99269.00;;;2.50;100.00
12349;BME280;5974;42.710;27.258;2023-11-19T00:49:28;99268.06;;;2.54;100.00
12349;BME280;5974;42.710;27.258;2023-11-19T00:51:55;99300.75;;;2.54;100.00
12349;BME280;5974;42.710;27.258;2023-11-19T00:54:23;99287.78;;;2.57;100.00
12349;BME280;5974;42.710;27.258;2023-11-19T00:56:51;99270.53;;;2.59;100.00
12349;BME280;5974;42.710;27.258;2023-11-19T00:59:18;99270.56;;;2.57;100.00
12349;BME280;5974;42.710;27.258;2023-11-19T01:01:44;99290.44;;;2.52;100.00
12349;BME280;5974;42.710;27.258;2023-11-19T01:04:13;99282.69;;;2.52;100.00
12349;BME280;5974;42.710;27.258;2023-11-19T01:06:41;99242.81;;;2.29;100.00
12349;BME280;5974;42.710;27.258;2023-11-19T01:09:09;99293.72;;;2.60;100.00
12349;BME280;5974;42.710;27.258;2023-11-19T01:11:35;99316.00;;;2.64;100.00
12349;BME280;5974;42.710;27.258;2023-11-19T01:14:03;99333.41;;;2.53;100.00
12349;BME280;5974;42.710;27.258;2023-11-19T01:16:30;99291.94;;;2.62;100.00
12349;BME280;5974;42.710;27.258;2023-11-19T01:18:56;99283.22;;;2.68;100.00
12349;BME280;5974;42.710;27.258;2023-11-19T01:21:23;99319.34;;;2.68;100.00
12349;BME280;5974;42.710;27.258;2023-11-19T01:23:52;99333.03;;;2.71;100.00
12349;BME280;5974;42.710;27.258;2023-11-19T01:26:18;99354.47;;;2.75;100.00
12349;BME280;5974;42.710;27.258;2023-11-19T01:28:45;99362.97;;;2.79;100.00
12349;BME280;5974;42.710;27.258;2023-11-19T01:31:15;99338.81;;;2.83;100.00
12349;BME280;5974;42.710;27.258;2023-11-19T01:33:42;99356.84;;;2.84;100.00
12349;BME280;5974;42.710;27.258;2023-11-19T01:36:12;99374.91;;;2.84;100.00
12349;BME280;5974;42.710;27.258;2023-11-19T01:38:39;99377.41;;;2.87;100.00
12349;BME280;5974;42.710;27.258;2023-11-19T01:41:07;99390.31;;;2.89;100.00
12349;BME280;5974;42.710;27.258;2023-11-19T01:43:35;99378.94;;;2.96;100.00
12349;BME280;5974;42.710;27.258;2023-11-19T01:46:04;99391.78;;;2.99;100.00
12349;BME280;5974;42.710;27.258;2023-11-19T01:48:33;99392.56;;;3.02;100.00
12349;BME280;5974;42.710;27.258;2023-11-19T01:51:03;99381.44;;;3.00;100.00
12349;BME280;5974;42.710;27.258;2023-11-19T01:53:30;99409.78;;;3.03;100.00
12349;BME280;5974;42.710;27.258;2023-11-19T01:55:58;99428.63;;;3.07;100.00
12349;BME280;5974;42.710;27.258;2023-11-19T01:58:27;99430.31;;;3.08;100.00
12349;BME280;5974;42.710;27.258;2023-11-19T02:00:56;99435.53;;;3.05;100.00
12349;BME280;5974;42.710;27.258;2023-11-19T02:03:24;99446.69;;;3.07;100.00
12349;BME280;5974;42.710;27.258;2023-11-19T02:05:53;99453.47;;;3.11;100.00
12349;BME280;5974;42.710;27.258;2023-11-19T02:08:20;99465.50;;;3.13;100.00
12349;BME280;5974;42.710;27.258;2023-11-19T02:10:47;99476.56;;;3.18;100.00
12349;BME280;5974;42.710;27.258;2023-11-19T02:13:14;99474.00;;;3.18;100.00
12349;BME280;5974;42.710;27.258;2023-11-19T02:15:42;99451.53;;;3.22;100.00
12349;BME280;5974;42.710;27.258;2023-11-19T02:18:19;99472.25;;;3.19;100.00
12349;BME280;5974;42.710;27.258;2023-11-19T02:20:47;99488.50;;;3.24;100.00
12349;BME280;5974;42.710;27.258;2023-11-19T02:23:15;99502.19;;;3.29;100.00
12349;BME280;5974;42.710;27.258;2023-11-19T02:25:43;99476.34;;;3.29;100.00
12349;BME280;5974;42.710;27.258;2023-11-19T02:28:16;99484.94;;;3.29;100.00
12349;BME280;5974;42.710;27.258;2023-11-19T02:30:43;99488.16;;;3.41;100.00
12349;BME280;5974;42.710;27.258;2023-11-19T02:33:10;99487.09;;;3.49;100.00
12349;BME280;5974;42.710;27.258;2023-11-19T02:35:38;99499.13;;;3.50;100.00
12349;BME280;5974;42.710;27.258;2023-11-19T02:38:06;99492.84;;;3.60;100.00
12349;BME280;5974;42.710;27.258;2023-11-19T02:40:33;99500.75;;;3.54;100.00
12349;BME280;5974;42.710;27.258;2023-11-19T02:43:00;99493.75;;;3.59;100.00
12349;BME280;5974;42.710;27.258;2023-11-19T02:45:28;99491.91;;;3.64;100.00
12349;BME280;5974;42.710;27.258;2023-11-19T02:47:56;99502.38;;;3.60;100.00
12349;BME280;5974;42.710;27.258;2023-11-19T02:50:23;99511.78;;;3.62;100.00
12349;BME280;5974;42.710;27.258;2023-11-19T02:52:52;99527.31;;;3.61;100.00
12349;BME280;5974;42.710;27.258;2023-11-19T02:55:21;99524.59;;;3.67;100.00
12349;BME280;5974;42.710;27.258;2023-11-19T02:57:49;99516.59;;;3.77;100.00
12349;BME280;5974;42.710;27.258;2023-11-19T03:00:19;99514.09;;;3.73;100.00
12349;BME280;5974;42.710;27.258;2023-11-19T03:02:50;99524.50;;;3.70;100.00
12349;BME280;5974;42.710;27.258;2023-11-19T03:05:25;99507.22;;;3.73;100.00
12349;BME280;5974;42.710;27.258;2023-11-19T03:07:52;99523.56;;;3.74;100.00
12349;BME280;5974;42.710;27.258;2023-11-19T03:10:18;99517.69;;;3.67;100.00
12349;BME280;5974;42.710;27.258;2023-11-19T03:12:45;99531.56;;;3.63;100.00
12349;BME280;5974;42.710;27.258;2023-11-19T03:15:12;99559.09;;;3.64;100.00
12349;BME280;5974;42.710;27.258;2023-11-19T03:17:40;99535.78;;;3.67;100.00
12349;BME280;5974;42.710;27.258;2023-11-19T03:20:10;99517.03;;;3.58;100.00
12349;BME280;5974;42.710;27.258;2023-11-19T03:22:40;99532.69;;;3.52;100.00
12349;BME280;5974;42.710;27.258;2023-11-19T03:25:08;99463.69;;;3.17;100.00
12349;BME280;5974;42.710;27.258;2023-11-19T03:27:35;99530.00;;;3.56;100.00
12349;BME280;5974;42.710;27.258;2023-11-19T03:30:03;99565.47;;;3.48;100.00
12349;BME280;5974;42.710;27.258;2023-11-19T03:32:31;99548.34;;;3.44;100.00
12349;BME280;5974;42.710;27.258;2023-11-19T03:34:58;99545.19;;;3.30;100.00
12349;BME280;5974;42.710;27.258;2023-11-19T03:37:27;99556.38;;;3.31;100.00
12349;BME280;5974;42.710;27.258;2023-11-19T03:39:54;99559.16;;;3.20;100.00
12349;BME280;5974;42.710;27.258;2023-11-19T03:42:25;99561.53;;;3.32;100.00
12349;BME280;5974;42.710;27.258;2023-11-19T03:44:52;99535.41;;;3.04;100.00
12349;BME280;5974;42.710;27.258;2023-11-19T03:47:18;99577.03;;;3.32;100.00
12349;BME280;5974;42.710;27.258;2023-11-19T03:49:47;99560.75;;;3.28;100.00
12349;BME280;5974;42.710;27.258;2023-11-19T03:52:15;99574.66;;;3.20;100.00
12349;BME280;5974;42.710;27.258;2023-11-19T03:54:44;99561.66;;;3.26;100.00
12349;BME280;5974;42.710;27.258;2023-11-19T03:57:11;99548.03;;;3.18;100.00
12349;BME280;5974;42.710;27.258;2023-11-19T03:59:39;99566.56;;;3.38;100.00
12349;BME280;5974;42.710;27.258;2023-11-19T04:02:06;99557.19;;;3.34;100.00
12349;BME280;5974;42.710;27.258;2023-11-19T04:04:34;99585.66;;;3.31;100.00
12349;BME280;5974;42.710;27.258;2023-11-19T04:07:01;99579.50;;;3.38;100.00
12349;BME280;5974;42.710;27.258;2023-11-19T04:09:29;99612.47;;;3.24;100.00
12349;BME280;5974;42.710;27.258;2023-11-19T04:11:57;99591.41;;;3.44;100.00
12349;BME280;5974;42.710;27.258;2023-11-19T04:14:24;99610.44;;;3.41;100.00
12349;BME280;5974;42.710;27.258;2023-11-19T04:16:51;99593.97;;;3.45;100.00
12349;BME280;5974;42.710;27.258;2023-11-19T04:19:18;99599.91;;;3.49;100.00
12349;BME280;5974;42.710;27.258;2023-11-19T04:21:45;99592.22;;;3.46;100.00
12349;BME280;5974;42.710;27.258;2023-11-19T04:24:12;99604.34;;;3.42;100.00
12349;BME280;5974;42.710;27.258;2023-11-19T04:26:43;99621.34;;;3.54;100.00
12349;BME280;5974;42.710;27.258;2023-11-19T04:29:13;99622.31;;;3.50;100.00
12349;BME280;5974;42.710;27.258;2023-11-19T04:31:40;99616.22;;;3.52;100.00
12349;BME280;5974;42.710;27.258;2023-11-19T04:34:07;99617.28;;;3.42;100.00
12349;BME280;5974;42.710;27.258;2023-11-19T04:36:34;99636.88;;;3.52;100.00
12349;BME280;5974;42.710;27.258;2023-11-19T04:39:01;99633.38;;;3.56;100.00
12349;BME280;5974;42.710;27.258;2023-11-19T04:41:28;99628.44;;;3.44;100.00
12349;BME280;5974;42.710;27.258;2023-11-19T04:43:55;99635.19;;;3.51;100.00
12349;BME280;5974;42.710;27.258;2023-11-19T04:46:24;99632.63;;;3.50;100.00
12349;BME280;5974;42.710;27.258;2023-11-19T04:48:50;99634.31;;;3.52;100.00
12349;BME280;5974;42.710;27.258;2023-11-19T04:51:17;99632.59;;;3.51;100.00
12349;BME280;5974;42.710;27.258;2023-11-19T04:53:44;99629.25;;;3.46;100.00
12349;BME280;5974;42.710;27.258;2023-11-19T04:56:11;99629.25;;;3.46;100.00
12349;BME280;5974;42.710;27.258;2023-11-19T04:58:38;99642.78;;;3.59;100.00
12349;BME280;5974;42.710;27.258;2023-11-19T05:01:06;99667.78;;;3.58;100.00
12349;BME280;5974;42.710;27.258;2023-11-19T05:03:34;99666.06;;;3.57;100.00
12349;BME280;5974;42.710;27.258;2023-11-19T05:06:01;99660.94;;;3.54;100.00
12349;BME280;5974;42.710;27.258;2023-11-19T05:08:28;99665.31;;;3.52;100.00
12349;BME280;5974;42.710;27.258;2023-11-19T05:10:55;99652.56;;;3.43;100.00
12349;BME280;5974;42.710;27.258;2023-11-19T05:13:23;99664.44;;;3.53;100.00
12349;BME280;5974;42.710;27.258;2023-11-19T05:15:50;99670.34;;;3.58;100.00
12349;BME280;5974;42.710;27.258;2023-11-19T05:18:17;99683.66;;;3.39;100.00
12349;BME280;5974;42.710;27.258;2023-11-19T05:20:46;99659.97;;;3.61;100.00
12349;BME280;5974;42.710;27.258;2023-11-19T05:23:12;99648.28;;;3.42;100.00
12349;BME280;5974;42.710;27.258;2023-11-19T05:25:39;99681.06;;;3.40;100.00
12349;BME280;5974;42.710;27.258;2023-11-19T05:28:06;99687.00;;;3.44;100.00
12349;BME280;5974;42.710;27.258;2023-11-19T05:30:33;99661.00;;;3.51;100.00
12349;BME280;5974;42.710;27.258;2023-11-19T05:33:00;99675.56;;;3.57;100.00
12349;BME280;5974;42.710;27.258;2023-11-19T05:35:27;99669.59;;;3.53;100.00
12349;BME280;5974;42.710;27.258;2023-11-19T05:37:55;99678.16;;;3.55;100.00
12349;BME280;5974;42.710;27.258;2023-11-19T05:40:22;99680.00;;;3.50;100.00
12349;BME280;5974;42.710;27.258;2023-11-19T05:42:49;99667.91;;;3.51;100.00
12349;BME280;5974;42.710;27.258;2023-11-19T05:45:16;99673.13;;;3.48;100.00
12349;BME280;5974;42.710;27.258;2023-11-19T05:47:43;99653.50;;;3.39;100.00
12349;BME280;5974;42.710;27.258;2023-11-19T05:50:10;99653.38;;;3.47;100.00
12349;BME280;5974;42.710;27.258;2023-11-19T05:52:37;99655.09;;;3.45;100.00
12349;BME280;5974;42.710;27.258;2023-11-19T05:55:07;99666.31;;;3.45;100.00
12349;BME280;5974;42.710;27.258;2023-11-19T05:57:35;99666.59;;;3.30;100.00
12349;BME280;5974;42.710;27.258;2023-11-19T06:00:03;99672.47;;;3.38;100.00
12349;BME280;5974;42.710;27.258;2023-11-19T06:02:32;99666.41;;;3.39;100.00
12349;BME280;5974;42.710;27.258;2023-11-19T06:04:59;99689.72;;;3.38;100.00
12349;BME280;5974;42.710;27.258;2023-11-19T06:07:26;99672.59;;;3.32;100.00
12349;BME280;5974;42.710;27.258;2023-11-19T06:09:53;99680.31;;;3.34;100.00
12349;BME280;5974;42.710;27.258;2023-11-19T06:12:22;99679.34;;;3.39;100.00
12349;BME280;5974;42.710;27.258;2023-11-19T06:14:48;99676.75;;;3.39;100.00
12349;BME280;5974;42.710;27.258;2023-11-19T06:17:15;99681.00;;;3.42;100.00
12349;BME280;5974;42.710;27.258;2023-11-19T06:19:43;99676.75;;;3.39;100.00
12349;BME280;5974;42.710;27.258;2023-11-19T06:22:10;99700.69;;;3.50;100.00
12349;BME280;5974;42.710;27.258;2023-11-19T06:24:37;99704.88;;;3.54;100.00
12349;BME280;5974;42.710;27.258;2023-11-19T06:27:04;99717.81;;;3.54;100.00
12349;BME280;5974;42.710;27.258;2023-11-19T06:29:32;99712.63;;;3.54;100.00
12349;BME280;5974;42.710;27.258;2023-11-19T06:31:59;99718.31;;;3.73;100.00
12349;BME280;5974;42.710;27.258;2023-11-19T06:34:26;99732.13;;;3.72;100.00
12349;BME280;5974;42.710;27.258;2023-11-19T06:36:52;99736.72;;;3.56;100.00
12349;BME280;5974;42.710;27.258;2023-11-19T06:39:19;99735.75;;;3.62;100.00
12349;BME280;5974;42.710;27.258;2023-11-19T06:41:46;99723.53;;;3.71;100.00
12349;BME280;5974;42.710;27.258;2023-11-19T06:44:14;99720.50;;;3.48;100.00
12349;BME280;5974;42.710;27.258;2023-11-19T06:46:42;99738.06;;;3.75;100.00
12349;BME280;5974;42.710;27.258;2023-11-19T06:49:09;99743.34;;;3.71;100.00
12349;BME280;5974;42.710;27.258;2023-11-19T06:51:36;99747.47;;;3.79;100.00
12349;BME280;5974;42.710;27.258;2023-11-19T06:54:07;99766.19;;;3.94;100.00
12349;BME280;5974;42.710;27.258;2023-11-19T06:56:34;99761.06;;;3.91;100.00
12349;BME280;5974;42.710;27.258;2023-11-19T06:59:00;99759.19;;;3.99;100.00
12349;BME280;5974;42.710;27.258;2023-11-19T07:01:27;99755.78;;;3.97;100.00
12349;BME280;5974;42.710;27.258;2023-11-19T07:03:55;99742.06;;;3.93;100.00
12349;BME280;5974;42.710;27.258;2023-11-19T07:06:23;99753.94;;;4.02;100.00
12349;BME280;5974;42.710;27.258;2023-11-19T07:08:50;99750.59;;;3.97;100.00
12349;BME280;5974;42.710;27.258;2023-11-19T07:11:17;99738.78;;;4.25;100.00
12349;BME280;5974;42.710;27.258;2023-11-19T07:13:43;99742.97;;;4.32;100.00
12349;BME280;5974;42.710;27.258;2023-11-19T07:16:14;99753.91;;;4.43;100.00
12349;BME280;5974;42.710;27.258;2023-11-19T07:18:40;99763.25;;;4.50;100.00
12349;BME280;5974;42.710;27.258;2023-11-19T07:21:10;99750.38;;;4.47;100.00
12349;BME280;5974;42.710;27.258;2023-11-19T07:23:37;99743.44;;;4.49;100.00
12349;BME280;5974;42.710;27.258;2023-11-19T07:26:05;99753.03;;;4.44;100.00
12349;BME280;5974;42.710;27.258;2023-11-19T07:28:33;99757.41;;;4.42;100.00
12349;BME280;5974;42.710;27.258;2023-11-19T07:31:00;99758.78;;;4.58;100.00
12349;BME280;5974;42.710;27.258;2023-11-19T07:33:27;99769.47;;;4.80;100.00
12349;BME280;5974;42.710;27.258;2023-11-19T07:35:55;99775.66;;;4.74;100.00
12349;BME280;5974;42.710;27.258;2023-11-19T07:38:23;99774.31;;;4.58;100.00
12349;BME280;5974;42.710;27.258;2023-11-19T07:40:49;99777.44;;;4.72;100.00
12349;BME280;5974;42.710;27.258;2023-11-19T07:43:16;99769.41;;;4.84;100.00
12349;BME280;5974;42.710;27.258;2023-11-19T07:45:43;99786.31;;;4.99;100.00
12349;BME280;5974;42.710;27.258;2023-11-19T07:48:10;99793.16;;;5.02;100.00
12349;BME280;5974;42.710;27.258;2023-11-19T07:50:38;99797.16;;;4.78;100.00
12349;BME280;5974;42.710;27.258;2023-11-19T07:53:06;99812.41;;;4.90;100.00
12349;BME280;5974;42.710;27.258;2023-11-19T07:55:34;99807.00;;;5.01;100.00
12349;BME280;5974;42.710;27.258;2023-11-19T07:58:01;99808.16;;;4.87;100.00
12349;BME280;5974;42.710;27.258;2023-11-19T08:00:28;99798.88;;;4.79;100.00
12349;BME280;5974;42.710;27.258;2023-11-19T08:02:55;99819.59;;;5.16;100.00
12349;BME280;5974;42.710;27.258;2023-11-19T08:05:21;99823.84;;;5.20;100.00
12349;BME280;5974;42.710;27.258;2023-11-19T08:07:50;99830.03;;;5.13;100.00
12349;BME280;5974;42.710;27.258;2023-11-19T08:10:17;99828.53;;;5.04;100.00
12349;BME280;5974;42.710;27.258;2023-11-19T08:12:45;99841.06;;;5.21;100.00
12349;BME280;5974;42.710;27.258;2023-11-19T08:15:12;99840.91;;;5.28;100.00
12349;BME280;5974;42.710;27.258;2023-11-19T08:17:39;99847.88;;;5.25;100.00
12349;BME280;5974;42.710;27.258;2023-11-19T08:20:07;99851.06;;;5.36;100.00
12349;BME280;5974;42.710;27.258;2023-11-19T08:22:35;99849.09;;;5.47;100.00
12349;BME280;5974;42.710;27.258;2023-11-19T08:25:03;99858.97;;;5.31;100.00
12349;BME280;5974;42.710;27.258;2023-11-19T08:27:30;99882.25;;;5.33;100.00
12349;BME280;5974;42.710;27.258;2023-11-19T08:29:58;99836.53;;;5.30;100.00
12349;BME280;5974;42.710;27.258;2023-11-19T08:32:27;99848.63;;;5.30;100.00
12349;BME280;5974;42.710;27.258;2023-11-19T08:34:54;99851.38;;;5.24;100.00
12349;BME280;5974;42.710;27.258;2023-11-19T08:37:21;99851.97;;;5.35;100.00
12349;BME280;5974;42.710;27.258;2023-11-19T08:39:48;99853.66;;;5.36;100.00
12349;BME280;5974;42.710;27.258;2023-11-19T08:42:15;99851.84;;;5.39;100.00
12349;BME280;5974;42.710;27.258;2023-11-19T08:44:42;99853.66;;;5.36;100.00
12349;BME280;5974;42.710;27.258;2023-11-19T08:47:14;99847.75;;;5.31;100.00
12349;BME280;5974;42.710;27.258;2023-11-19T08:49:41;99834.63;;;5.37;100.00
12349;BME280;5974;42.710;27.258;2023-11-19T08:52:08;99844.00;;;5.42;100.00
12349;BME280;5974;42.710;27.258;2023-11-19T08:54:36;99853.06;;;5.25;100.00
12349;BME280;5974;42.710;27.258;2023-11-19T08:57:03;99841.47;;;5.41;100.00
12349;BME280;5974;42.710;27.258;2023-11-19T08:59:30;99850.66;;;5.17;100.00
12349;BME280;5974;42.710;27.258;2023-11-19T09:01:57;99853.94;;;5.24;100.00
12349;BME280;5974;42.710;27.258;2023-11-19T09:04:25;99857.19;;;5.33;100.00
12349;BME280;5974;42.710;27.258;2023-11-19T09:06:52;99859.91;;;5.27;100.00
12349;BME280;5974;42.710;27.258;2023-11-19T09:09:18;99857.59;;;5.17;100.00
12349;BME280;5974;42.710;27.258;2023-11-19T09:11:45;99864.25;;;5.27;100.00
12349;BME280;5974;42.710;27.258;2023-11-19T09:14:12;99872.84;;;5.29;100.00
12349;BME280;5974;42.710;27.258;2023-11-19T09:16:39;99887.50;;;5.30;100.00
12349;BME280;5974;42.710;27.258;2023-11-19T09:19:06;99863.09;;;5.38;100.00
12349;BME280;5974;42.710;27.258;2023-11-19T09:21:34;99877.81;;;5.38;100.00
12349;BME280;5974;42.710;27.258;2023-11-19T09:24:04;99872.59;;;5.39;100.00
12349;BME280;5974;42.710;27.258;2023-11-19T09:26:33;99896.69;;;5.43;100.00
12349;BME280;5974;42.710;27.258;2023-11-19T09:28:59;99900.44;;;5.31;100.00
12349;BME280;5974;42.710;27.258;2023-11-19T09:31:26;99882.72;;;5.50;100.00
12349;BME280;5974;42.710;27.258;2023-11-19T09:33:53;99885.53;;;5.41;100.00
12349;BME280;5974;42.710;27.258;2023-11-19T09:36:20;99873.81;;;5.60;100.00
12349;BME280;5974;42.710;27.258;2023-11-19T09:38:48;99860.69;;;5.66;100.00
12349;BME280;5974;42.710;27.258;2023-11-19T09:41:15;99873.59;;;6.05;100.00
12349;BME280;5974;42.710;27.258;2023-11-19T09:43:45;99875.28;;;6.38;100.00
12349;BME280;5974;42.710;27.258;2023-11-19T09:46:13;99882.75;;;6.79;100.00
12349;BME280;5974;42.710;27.258;2023-11-19T09:48:42;99873.38;;;7.03;100.00
12349;BME280;5974;42.710;27.258;2023-11-19T09:51:09;99863.78;;;7.33;98.53
12349;BME280;5974;42.710;27.258;2023-11-19T09:53:37;99873.50;;;7.28;97.13
12349;BME280;5974;42.710;27.258;2023-11-19T09:56:07;99860.78;;;7.19;95.04
12349;BME280;5974;42.710;27.258;2023-11-19T09:58:34;99853.56;;;7.27;98.08
12349;BME280;5974;42.710;27.258;2023-11-19T10:01:01;99863.00;;;7.31;94.30
12349;BME280;5974;42.710;27.258;2023-11-19T10:03:34;99851.81;;;6.99;93.73
12349;BME280;5974;42.710;27.258;2023-11-19T10:06:03;99841.69;;;6.92;94.64
12349;BME280;5974;42.710;27.258;2023-11-19T10:08:32;99859.19;;;6.85;94.19
12349;BME280;5974;42.710;27.258;2023-11-19T10:10:59;99844.69;;;7.06;97.53
12349;BME280;5974;42.710;27.258;2023-11-19T10:13:27;99858.09;;;6.92;95.58
12349;BME280;5974;42.710;27.258;2023-11-19T10:15:55;99854.69;;;6.90;95.56
12349;BME280;5974;42.710;27.258;2023-11-19T10:18:24;99862.84;;;6.80;95.92
12349;BME280;5974;42.710;27.258;2023-11-19T10:20:52;99870.16;;;6.66;96.35
12349;BME280;5974;42.710;27.258;2023-11-19T10:23:20;99867.56;;;6.66;97.99
12349;BME280;5974;42.710;27.258;2023-11-19T10:25:47;99871.63;;;6.74;100.00
12349;BME280;5974;42.710;27.258;2023-11-19T10:28:15;99881.66;;;6.86;99.68
12349;BME280;5974;42.710;27.258;2023-11-19T10:30:48;99876.34;;;6.91;100.00
12349;BME280;5974;42.710;27.258;2023-11-19T10:33:15;99886.09;;;7.12;100.00
12349;BME280;5974;42.710;27.258;2023-11-19T10:35:53;99879.81;;;6.91;100.00
12349;BME280;5974;42.710;27.258;2023-11-19T10:38:20;99891.47;;;7.06;100.00
12349;BME280;5974;42.710;27.258;2023-11-19T10:40:47;99877.88;;;6.98;100.00
12349;BME280;5974;42.710;27.258;2023-11-19T10:43:14;99879.38;;;7.05;100.00
12349;BME280;5974;42.710;27.258;2023-11-19T10:45:41;99880.03;;;7.12;100.00
12349;BME280;5974;42.710;27.258;2023-11-19T10:48:10;99848.53;;;6.65;100.00
12349;BME280;5974;42.710;27.258;2023-11-19T10:50:41;99886.00;;;7.15;100.00
12349;BME280;5974;42.710;27.258;2023-11-19T10:53:10;99874.63;;;7.47;100.00
12349;BME280;5974;42.710;27.258;2023-11-19T10:55:39;99825.03;;;6.97;100.00
12349;BME280;5974;42.710;27.258;2023-11-19T10:58:06;99879.81;;;7.47;100.00
12349;BME280;5974;42.710;27.258;2023-11-19T11:00:38;99879.66;;;7.51;100.00
12349;BME280;5974;42.710;27.258;2023-11-19T11:03:11;99870.41;;;7.15;100.00
12349;BME280;5974;42.710;27.258;2023-11-19T11:05:38;99862.22;;;7.27;100.00
12349;BME280;5974;42.710;27.258;2023-11-19T11:08:06;99873.28;;;7.34;100.00
12349;BME280;5974;42.710;27.258;2023-11-19T11:10:39;99876.25;;;7.49;100.00
12349;BME280;5974;42.710;27.258;2023-11-19T11:13:06;99871.38;;;7.11;100.00
12349;BME280;5974;42.710;27.258;2023-11-19T11:15:34;99886.41;;;7.01;100.00
12349;BME280;5974;42.710;27.258;2023-11-19T11:18:01;99868.19;;;7.31;100.00
12349;BME280;5974;42.710;27.258;2023-11-19T11:20:31;99862.59;;;7.69;100.00
12349;BME280;5974;42.710;27.258;2023-11-19T11:23:36;99863.28;;;7.48;100.00
12349;BME280;5974;42.710;27.258;2023-11-19T11:26:25;99857.00;;;7.55;100.00
12349;BME280;5974;42.710;27.258;2023-11-19T11:28:59;99841.09;;;7.64;100.00
12349;BME280;5974;42.710;27.258;2023-11-19T11:31:36;99848.88;;;7.66;100.00
12349;BME280;5974;42.710;27.258;2023-11-19T11:34:29;99850.25;;;8.00;100.00
12349;BME280;5974;42.710;27.258;2023-11-19T11:37:13;99850.25;;;8.25;100.00
12349;BME280;5974;42.710;27.258;2023-11-19T11:39:45;99843.81;;;8.12;100.00
12349;BME280;5974;42.710;27.258;2023-11-19T11:42:31;99840.47;;;8.33;100.00
12349;BME280;5974;42.710;27.258;2023-11-19T11:44:59;99847.63;;;8.02;100.00
12349;BME280;5974;42.710;27.258;2023-11-19T11:48:11;99848.28;;;8.07;100.00
12349;BME280;5974;42.710;27.258;2023-11-19T11:50:49;99846.50;;;8.09;100.00
12349;BME280;5974;42.710;27.258;2023-11-19T11:53:19;99845.78;;;8.30;100.00
12349;BME280;5974;42.710;27.258;2023-11-19T11:55:55;99846.22;;;8.16;100.00
12349;BME280;5974;42.710;27.258;2023-11-19T11:58:35;99855.69;;;8.44;100.00
12349;BME280;5974;42.710;27.258;2023-11-19T12:01:04;99845.28;;;8.67;100.00
12349;BME280;5974;42.710;27.258;2023-11-19T12:03:34;99846.22;;;8.64;100.00
12349;BME280;5974;42.710;27.258;2023-11-19T12:06:01;99852.28;;;8.65;100.00
12349;BME280;5974;42.710;27.258;2023-11-19T12:08:30;99844.38;;;8.68;100.00
12349;BME280;5974;42.710;27.258;2023-11-19T12:10:58;99853.50;;;8.56;100.00
12349;BME280;5974;42.710;27.258;2023-11-19T12:13:42;99830.69;;;8.40;100.00
12349;BME280;5974;42.710;27.258;2023-11-19T12:16:11;99835.09;;;8.61;100.00
12349;BME280;5974;42.710;27.258;2023-11-19T12:18:40;99833.63;;;8.54;100.00
12349;BME280;5974;42.710;27.258;2023-11-19T12:21:08;99831.38;;;8.90;100.00
12349;BME280;5974;42.710;27.258;2023-11-19T12:23:47;99840.16;;;8.87;100.00
12349;BME280;5974;42.710;27.258;2023-11-19T12:26:38;99804.31;;;8.70;100.00
12349;BME280;5974;42.710;27.258;2023-11-19T12:29:06;99818.59;;;8.60;100.00
12349;BME280;5974;42.710;27.258;2023-11-19T12:31:34;99834.28;;;8.82;100.00
12349;BME280;5974;42.710;27.258;2023-11-19T12:34:10;99831.44;;;8.88;100.00
12349;BME280;5974;42.710;27.258;2023-11-19T12:36:39;99828.97;;;8.85;100.00
12349;BME280;5974;42.710;27.258;2023-11-19T12:39:09;99837.56;;;8.87;100.00
12349;BME280;5974;42.710;27.258;2023-11-19T12:41:51;99846.06;;;8.69;100.00
12349;BME280;5974;42.710;27.258;2023-11-19T12:44:18;99838.97;;;8.96;100.00
12349;BME280;5974;42.710;27.258;2023-11-19T12:46:45;99840.13;;;8.89;100.00
12349;BME280;5974;42.710;27.258;2023-11-19T12:49:12;99859.94;;;8.93;100.00
12349;BME280;5974;42.710;27.258;2023-11-19T12:51:39;99859.41;;;9.06;100.00
12349;BME280;5974;42.710;27.258;2023-11-19T12:54:06;99876.53;;;9.13;100.00
12349;BME280;5974;42.710;27.258;2023-11-19T12:56:34;99894.78;;;8.90;100.00
12349;BME280;5974;42.710;27.258;2023-11-19T12:59:10;99882.78;;;9.09;100.00
12349;BME280;5974;42.710;27.258;2023-11-19T13:01:38;99876.53;;;8.90;100.00
12349;BME280;5974;42.710;27.258;2023-11-19T13:04:17;99891.56;;;9.07;100.00
12349;BME280;5974;42.710;27.258;2023-11-19T13:06:45;99882.72;;;8.88;100.00